This is the latest recevied weather packets stored in our database for station/object KB3KAV. If no packets are shown the sender has not sent any weather packets the latest 10 day(s).
| Time | Temp. | Humidity | Pressure | Rain* | Wind** | Luminosity | Snow |
|---|---|---|---|---|---|---|---|
| 1787617347 | 16.11° C | 92% | 1044.9 hPa | 0 mm | - | 0 W/m² | - |
| 1787616747 | 16.11° C | 91% | 1044.9 hPa | 0 mm | - | 0 W/m² | - |
| 1787616145 | 16.67° C | 91% | 1045.1 hPa | 0 mm | - | 0 W/m² | - |
| 1787615540 | 16.67° C | 90% | 1044.9 hPa | 0 mm | - | 0 W/m² | - |
| 1787614938 | 16.67° C | 89% | 1044.9 hPa | 0 mm | - | 4 W/m² | - |
| 1787614336 | 17.22° C | 87% | 1044.8 hPa | 0 mm | - | 8 W/m² | - |
| 1787613735 | 17.22° C | 86% | 1045 hPa | 0 mm | - | 10 W/m² | - |
| 1787613131 | 17.78° C | 86% | 1044.5 hPa | 0 mm | - | 13 W/m² | - |
| 1787612530 | 17.78° C | 82% | 1044.6 hPa | 0 mm | - | 21 W/m² | - |
| 1787611927 | 18.33° C | 80% | 1044.4 hPa | 0 mm | - | 38 W/m² | - |
| 1787611325 | 18.89° C | 77% | 1044.6 hPa | 0 mm | - | 57 W/m² | - |
| 1787610721 | 18.89° C | 78% | 1044.5 hPa | 0 mm | - | 66 W/m² | - |
| 1787610121 | 18.89° C | 77% | 1044.7 hPa | 0 mm | - | 45 W/m² | - |
| 1787609521 | 18.89° C | 78% | 1044.5 hPa | 0 mm | - | 49 W/m² | - |
| 1787608916 | 19.44° C | 75% | 1044.5 hPa | 0 mm | - | 64 W/m² | - |
| 1787608312 | 20° C | 75% | 1044.3 hPa | 0 mm | - | 77 W/m² | - |
| 1787607711 | 19.44° C | 74% | 1044.2 hPa | 0 mm | - | 80 W/m² | - |
| 1787607110 | 20° C | 70% | 1044.4 hPa | 0 mm | - | 71 W/m² | - |
| 1787606509 | 20° C | 71% | 1044.3 hPa | 0 mm | - | 98 W/m² | - |
| 1787605908 | 21.11° C | 67% | 1044.2 hPa | 0 mm | - | 124 W/m² | - |
| 1787605304 | 21.67° C | 63% | 1044.2 hPa | 0 mm | - | 370 W/m² | - |
| 1787604703 | 20.56° C | 69% | 1044.1 hPa | 0 mm | - | 160 W/m² | - |
| 1787604103 | 20.56° C | 66% | 1044.2 hPa | 0 mm | - | 162 W/m² | - |
| 1787603498 | 20.56° C | 69% | 1044 hPa | 0 mm | - | 184 W/m² | - |
| 1787602896 | 20° C | 73% | 1043.9 hPa | 0 mm | - | 163 W/m² | - |
* Rain latest hour (hover to see other rain measurements)
** Current wind speed in m/s (hover to see current wind gust speed)